RZE weather

Rzeszów-Jasionka Airport
Rzeszów, Subcarpathia, Poland

Public forecast

Using degrees Celsius for public forecast. Weather courtesy of forecast.io.

Current aviation weather report (METAR) for Rzeszów-Jasionka Airport

Retrieved 2020/01/29 04:30 UTC (0 seconds ago):

EPRZ 290430Z 26007KT 9999 BKN038 02/M01 Q1000

Aviation forecast (TAF) for Rzeszów-Jasionka Airport

Retrieved 2020-01-29 00:33 UTC (4 hours ago):

TAF EPRZ 282330Z 2900/2924 20007KT 9999 SCT033 BECMG 2900/2903 26010KT TEMPO 2902/2924 26015G25KT 4000 -SHSNRA BKN007 BKN013CB PROB40 TEMPO 2904/2924 2000 SHSN BKN004 BKN010CB